sensor_id;sensor_type;location;lat;lon;timestamp;pressure;altitude;pressure_sealevel;temperature;humidity
74958;BME280;63741;42.624;26.276;2022-12-18T00:01:20;100337.22;;;12.55;68.51
74958;BME280;63741;42.624;26.276;2022-12-18T00:03:48;100335.69;;;12.63;67.70
74958;BME280;63741;42.624;26.276;2022-12-18T00:06:18;100337.31;;;12.53;67.95
74958;BME280;63741;42.624;26.276;2022-12-18T00:08:46;100350.22;;;12.58;67.59
74958;BME280;63741;42.624;26.276;2022-12-18T00:11:18;100357.69;;;12.53;68.50
74958;BME280;63741;42.624;26.276;2022-12-18T00:13:46;100359.50;;;12.52;68.20
74958;BME280;63741;42.624;26.276;2022-12-18T00:16:16;100363.22;;;12.50;67.78
74958;BME280;63741;42.624;26.276;2022-12-18T00:18:47;100357.63;;;12.65;66.36
74958;BME280;63741;42.624;26.276;2022-12-18T00:21:15;100364.78;;;12.76;66.72
74958;BME280;63741;42.624;26.276;2022-12-18T00:23:45;100371.69;;;12.79;67.01
74958;BME280;63741;42.624;26.276;2022-12-18T00:26:18;100380.13;;;12.84;66.24
74958;BME280;63741;42.624;26.276;2022-12-18T00:28:46;100385.91;;;12.78;66.94
74958;BME280;63741;42.624;26.276;2022-12-18T00:31:18;100391.50;;;12.86;66.75
74958;BME280;63741;42.624;26.276;2022-12-18T00:33:46;100380.28;;;12.82;65.75
74958;BME280;63741;42.624;26.276;2022-12-18T00:36:18;100377.28;;;12.87;66.18
74958;BME280;63741;42.624;26.276;2022-12-18T00:38:46;100381.25;;;12.93;65.43
74958;BME280;63741;42.624;26.276;2022-12-18T00:41:17;100376.78;;;12.93;65.26
74958;BME280;63741;42.624;26.276;2022-12-18T00:44:06;100378.34;;;12.84;65.90
74958;BME280;63741;42.624;26.276;2022-12-18T00:46:34;100389.22;;;12.93;65.49
74958;BME280;63741;42.624;26.276;2022-12-18T00:49:01;100396.81;;;12.86;64.96
74958;BME280;63741;42.624;26.276;2022-12-18T00:51:28;100398.59;;;12.85;65.81
74958;BME280;63741;42.624;26.276;2022-12-18T00:53:55;100405.72;;;12.85;65.90
74958;BME280;63741;42.624;26.276;2022-12-18T00:56:23;100404.50;;;12.78;66.32
74958;BME280;63741;42.624;26.276;2022-12-18T00:58:50;100403.75;;;12.76;65.74
74958;BME280;63741;42.624;26.276;2022-12-18T01:01:17;100414.31;;;12.88;65.17
74958;BME280;63741;42.624;26.276;2022-12-18T01:03:45;100415.50;;;12.84;65.11
74958;BME280;63741;42.624;26.276;2022-12-18T01:06:15;100433.72;;;12.78;66.62
74958;BME280;63741;42.624;26.276;2022-12-18T01:08:43;100449.34;;;12.70;66.26
74958;BME280;63741;42.624;26.276;2022-12-18T01:11:17;100451.59;;;12.63;66.60
74958;BME280;63741;42.624;26.276;2022-12-18T01:13:45;100457.22;;;12.58;67.25
74958;BME280;63741;42.624;26.276;2022-12-18T01:16:13;100458.63;;;12.64;65.90
74958;BME280;63741;42.624;26.276;2022-12-18T01:18:40;100459.84;;;12.71;66.24
74958;BME280;63741;42.624;26.276;2022-12-18T01:21:09;100460.69;;;12.72;66.99
74958;BME280;63741;42.624;26.276;2022-12-18T01:23:37;100462.88;;;12.54;69.50
74958;BME280;63741;42.624;26.276;2022-12-18T01:26:10;100462.81;;;12.43;70.36
74958;BME280;63741;42.624;26.276;2022-12-18T01:28:37;100465.38;;;12.31;71.20
74958;BME280;63741;42.624;26.276;2022-12-18T01:31:28;100469.84;;;12.18;71.79
74958;BME280;63741;42.624;26.276;2022-12-18T01:33:55;100474.44;;;12.03;73.15
74958;BME280;63741;42.624;26.276;2022-12-18T01:38:50;100472.13;;;11.86;73.39
74958;BME280;63741;42.624;26.276;2022-12-18T01:41:20;100472.66;;;11.91;74.08
74958;BME280;63741;42.624;26.276;2022-12-18T01:43:56;100459.78;;;11.72;74.64
74958;BME280;63741;42.624;26.276;2022-12-18T01:46:24;100457.03;;;11.74;74.30
74958;BME280;63741;42.624;26.276;2022-12-18T01:49:00;100466.59;;;11.76;75.02
74958;BME280;63741;42.624;26.276;2022-12-18T01:51:29;100458.31;;;11.68;75.22
74958;BME280;63741;42.624;26.276;2022-12-18T01:53:58;100459.59;;;11.62;75.32
74958;BME280;63741;42.624;26.276;2022-12-18T01:56:25;100455.34;;;11.60;75.85
74958;BME280;63741;42.624;26.276;2022-12-18T01:58:58;100447.91;;;11.65;75.86
74958;BME280;63741;42.624;26.276;2022-12-18T02:01:27;100445.69;;;11.59;76.43
74958;BME280;63741;42.624;26.276;2022-12-18T02:04:24;100439.03;;;11.53;76.43
74958;BME280;63741;42.624;26.276;2022-12-18T02:12:54;100442.84;;;11.49;76.62
74958;BME280;63741;42.624;26.276;2022-12-18T02:15:40;100438.19;;;11.53;76.60
74958;BME280;63741;42.624;26.276;2022-12-18T02:18:15;100419.94;;;11.48;77.23
74958;BME280;63741;42.624;26.276;2022-12-18T02:20:49;100427.69;;;11.64;73.41
74958;BME280;63741;42.624;26.276;2022-12-18T02:29:01;100427.78;;;11.50;71.81
74958;BME280;63741;42.624;26.276;2022-12-18T02:31:36;100429.06;;;11.44;71.93
74958;BME280;63741;42.624;26.276;2022-12-18T02:34:07;100434.44;;;11.55;71.02
74958;BME280;63741;42.624;26.276;2022-12-18T02:36:40;100432.00;;;11.78;69.19
74958;BME280;63741;42.624;26.276;2022-12-18T02:39:11;100425.78;;;11.79;68.08
74958;BME280;63741;42.624;26.276;2022-12-18T02:41:47;100421.72;;;11.73;68.26
74958;BME280;63741;42.624;26.276;2022-12-18T02:44:14;100414.88;;;11.58;69.00
74958;BME280;63741;42.624;26.276;2022-12-18T02:46:48;100422.06;;;11.69;68.78
74958;BME280;63741;42.624;26.276;2022-12-18T02:52:11;100433.50;;;11.82;67.25
74958;BME280;63741;42.624;26.276;2022-12-18T03:00:14;100438.78;;;11.82;67.87
74958;BME280;63741;42.624;26.276;2022-12-18T03:05:33;100447.81;;;11.67;67.90
74958;BME280;63741;42.624;26.276;2022-12-18T03:08:08;100444.72;;;11.60;67.95
74958;BME280;63741;42.624;26.276;2022-12-18T03:10:45;100439.34;;;11.61;67.91
74958;BME280;63741;42.624;26.276;2022-12-18T03:13:19;100453.53;;;11.60;67.69
74958;BME280;63741;42.624;26.276;2022-12-18T03:15:49;100448.53;;;11.56;68.25
74958;BME280;63741;42.624;26.276;2022-12-18T03:18:21;100445.16;;;11.54;67.48
74958;BME280;63741;42.624;26.276;2022-12-18T03:20:53;100434.25;;;11.46;68.16
74958;BME280;63741;42.624;26.276;2022-12-18T03:23:25;100440.31;;;11.48;68.97
74958;BME280;63741;42.624;26.276;2022-12-18T03:25:55;100457.66;;;11.52;68.32
74958;BME280;63741;42.624;26.276;2022-12-18T03:28:30;100459.38;;;11.78;66.73
74958;BME280;63741;42.624;26.276;2022-12-18T03:31:04;100459.72;;;11.86;66.37
74958;BME280;63741;42.624;26.276;2022-12-18T03:33:38;100460.88;;;11.95;66.25
74958;BME280;63741;42.624;26.276;2022-12-18T03:36:07;100455.56;;;11.95;65.31
74958;BME280;63741;42.624;26.276;2022-12-18T03:38:34;100459.84;;;11.85;66.19
74958;BME280;63741;42.624;26.276;2022-12-18T03:41:22;100463.53;;;11.82;66.32
74958;BME280;63741;42.624;26.276;2022-12-18T03:49:57;100498.25;;;11.65;66.32
74958;BME280;63741;42.624;26.276;2022-12-18T03:52:37;100504.41;;;11.53;67.11
74958;BME280;63741;42.624;26.276;2022-12-18T03:55:07;100507.47;;;11.47;67.44
74958;BME280;63741;42.624;26.276;2022-12-18T03:57:36;100516.06;;;11.50;67.20
74958;BME280;63741;42.624;26.276;2022-12-18T04:00:16;100520.47;;;11.37;67.56
74958;BME280;63741;42.624;26.276;2022-12-18T04:02:59;100529.06;;;11.41;68.05
74958;BME280;63741;42.624;26.276;2022-12-18T04:05:38;100522.00;;;11.54;67.75
74958;BME280;63741;42.624;26.276;2022-12-18T04:08:07;100527.63;;;11.62;66.87
74958;BME280;63741;42.624;26.276;2022-12-18T04:10:37;100534.66;;;11.76;65.88
74958;BME280;63741;42.624;26.276;2022-12-18T04:13:04;100534.47;;;11.79;66.27
74958;BME280;63741;42.624;26.276;2022-12-18T04:15:34;100545.31;;;11.88;65.50
74958;BME280;63741;42.624;26.276;2022-12-18T04:18:03;100543.91;;;11.83;65.54
74958;BME280;63741;42.624;26.276;2022-12-18T04:20:37;100548.03;;;11.87;65.41
74958;BME280;63741;42.624;26.276;2022-12-18T04:23:04;100552.78;;;11.82;65.92
74958;BME280;63741;42.624;26.276;2022-12-18T04:25:32;100549.38;;;11.67;66.12
74958;BME280;63741;42.624;26.276;2022-12-18T04:28:06;100561.56;;;11.57;66.62
74958;BME280;63741;42.624;26.276;2022-12-18T04:30:34;100554.94;;;11.50;66.54
74958;BME280;63741;42.624;26.276;2022-12-18T04:33:01;100567.28;;;11.63;66.16
74958;BME280;63741;42.624;26.276;2022-12-18T04:35:30;100569.00;;;11.77;65.47
74958;BME280;63741;42.624;26.276;2022-12-18T04:37:56;100568.31;;;11.88;64.84
74958;BME280;63741;42.624;26.276;2022-12-18T04:40:23;100570.09;;;11.87;64.48
74958;BME280;63741;42.624;26.276;2022-12-18T04:42:51;100564.31;;;11.68;65.74
74958;BME280;63741;42.624;26.276;2022-12-18T04:45:18;100571.84;;;11.61;65.47
74958;BME280;63741;42.624;26.276;2022-12-18T04:47:45;100576.69;;;11.55;66.44
74958;BME280;63741;42.624;26.276;2022-12-18T04:50:12;100587.34;;;11.41;67.28
74958;BME280;63741;42.624;26.276;2022-12-18T04:52:38;100580.13;;;11.30;67.04
74958;BME280;63741;42.624;26.276;2022-12-18T04:55:05;100584.66;;;11.28;68.14
74958;BME280;63741;42.624;26.276;2022-12-18T04:57:32;100581.16;;;11.27;67.81
74958;BME280;63741;42.624;26.276;2022-12-18T04:59:59;100588.00;;;11.44;65.98
74958;BME280;63741;42.624;26.276;2022-12-18T05:02:26;100586.41;;;11.42;66.59
74958;BME280;63741;42.624;26.276;2022-12-18T05:04:53;100588.56;;;11.49;66.42
74958;BME280;63741;42.624;26.276;2022-12-18T05:07:20;100581.78;;;11.58;66.00
74958;BME280;63741;42.624;26.276;2022-12-18T05:09:47;100586.03;;;11.60;65.84
74958;BME280;63741;42.624;26.276;2022-12-18T05:12:14;100595.25;;;11.55;66.39
74958;BME280;63741;42.624;26.276;2022-12-18T05:14:41;100604.38;;;11.63;65.12
74958;BME280;63741;42.624;26.276;2022-12-18T05:17:08;100610.75;;;11.61;65.46
74958;BME280;63741;42.624;26.276;2022-12-18T05:19:35;100605.44;;;11.61;65.37
74958;BME280;63741;42.624;26.276;2022-12-18T05:22:02;100605.44;;;11.61;65.28
74958;BME280;63741;42.624;26.276;2022-12-18T05:24:28;100608.47;;;11.55;65.48
74958;BME280;63741;42.624;26.276;2022-12-18T05:26:55;100620.66;;;11.45;65.71
74958;BME280;63741;42.624;26.276;2022-12-18T05:29:22;100629.03;;;11.51;65.15
74958;BME280;63741;42.624;26.276;2022-12-18T05:31:49;100619.69;;;11.46;66.14
74958;BME280;63741;42.624;26.276;2022-12-18T05:34:16;100635.59;;;11.46;66.01
74958;BME280;63741;42.624;26.276;2022-12-18T05:36:43;100621.66;;;11.56;64.96
74958;BME280;63741;42.624;26.276;2022-12-18T05:39:10;100632.44;;;11.53;65.25
74958;BME280;63741;42.624;26.276;2022-12-18T05:41:37;100639.31;;;11.43;65.58
74958;BME280;63741;42.624;26.276;2022-12-18T05:44:04;100643.94;;;11.39;65.97
74958;BME280;63741;42.624;26.276;2022-12-18T05:46:31;100646.19;;;11.46;65.59
74958;BME280;63741;42.624;26.276;2022-12-18T05:49:00;100657.72;;;11.45;65.28
74958;BME280;63741;42.624;26.276;2022-12-18T05:51:27;100649.91;;;11.56;64.35
74958;BME280;63741;42.624;26.276;2022-12-18T05:53:54;100658.03;;;11.40;65.27
74958;BME280;63741;42.624;26.276;2022-12-18T05:56:22;100664.88;;;11.30;65.51
74958;BME280;63741;42.624;26.276;2022-12-18T05:58:53;100673.84;;;11.27;65.53
74958;BME280;63741;42.624;26.276;2022-12-18T06:01:24;100675.19;;;11.20;64.58
74958;BME280;63741;42.624;26.276;2022-12-18T06:03:52;100680.03;;;11.13;65.20
74958;BME280;63741;42.624;26.276;2022-12-18T06:06:22;100686.28;;;11.12;65.61
74958;BME280;63741;42.624;26.276;2022-12-18T06:08:50;100682.56;;;11.15;65.28
74958;BME280;63741;42.624;26.276;2022-12-18T06:11:21;100691.66;;;11.11;65.61
74958;BME280;63741;42.624;26.276;2022-12-18T06:13:54;100701.31;;;11.12;65.54
74958;BME280;63741;42.624;26.276;2022-12-18T06:16:25;100697.72;;;11.13;66.04
74958;BME280;63741;42.624;26.276;2022-12-18T06:18:53;100707.44;;;10.98;66.04
74958;BME280;63741;42.624;26.276;2022-12-18T06:21:20;100715.78;;;10.92;65.73
74958;BME280;63741;42.624;26.276;2022-12-18T06:23:47;100719.28;;;10.93;66.24
74958;BME280;63741;42.624;26.276;2022-12-18T06:26:14;100713.41;;;11.02;65.21
74958;BME280;63741;42.624;26.276;2022-12-18T06:28:41;100724.97;;;11.01;65.70
74958;BME280;63741;42.624;26.276;2022-12-18T06:31:09;100736.31;;;11.03;65.57
74958;BME280;63741;42.624;26.276;2022-12-18T06:33:36;100725.59;;;11.19;65.14
74958;BME280;63741;42.624;26.276;2022-12-18T06:36:08;100738.69;;;11.07;65.02
74958;BME280;63741;42.624;26.276;2022-12-18T06:38:38;100747.47;;;11.08;64.61
74958;BME280;63741;42.624;26.276;2022-12-18T06:41:11;100747.84;;;11.02;64.45
74958;BME280;63741;42.624;26.276;2022-12-18T06:43:38;100758.25;;;11.05;64.10
74958;BME280;63741;42.624;26.276;2022-12-18T06:46:06;100750.97;;;11.08;64.42
74958;BME280;63741;42.624;26.276;2022-12-18T06:48:33;100760.50;;;10.97;65.64
74958;BME280;63741;42.624;26.276;2022-12-18T06:51:00;100770.41;;;10.93;65.62
74958;BME280;63741;42.624;26.276;2022-12-18T06:53:27;100766.06;;;10.92;65.38
74958;BME280;63741;42.624;26.276;2022-12-18T06:56:05;100773.72;;;10.82;65.24
74958;BME280;63741;42.624;26.276;2022-12-18T06:58:37;100789.34;;;10.87;65.37
74958;BME280;63741;42.624;26.276;2022-12-18T07:01:07;100776.25;;;10.70;65.56
74958;BME280;63741;42.624;26.276;2022-12-18T07:03:34;100784.38;;;10.67;65.89
74958;BME280;63741;42.624;26.276;2022-12-18T07:06:02;100788.53;;;10.71;65.74
74958;BME280;63741;42.624;26.276;2022-12-18T07:08:30;100806.91;;;10.88;65.38
74958;BME280;63741;42.624;26.276;2022-12-18T07:10:57;100808.72;;;11.02;63.49
74958;BME280;63741;42.624;26.276;2022-12-18T07:13:24;100809.16;;;10.80;64.28
74958;BME280;63741;42.624;26.276;2022-12-18T07:15:51;100814.38;;;10.81;64.69
74958;BME280;63741;42.624;26.276;2022-12-18T07:18:18;100818.16;;;10.92;64.08
74958;BME280;63741;42.624;26.276;2022-12-18T07:20:45;100817.16;;;10.94;64.15
74958;BME280;63741;42.624;26.276;2022-12-18T07:23:13;100820.81;;;10.92;64.73
74958;BME280;63741;42.624;26.276;2022-12-18T07:25:40;100822.34;;;10.96;64.13
74958;BME280;63741;42.624;26.276;2022-12-18T07:28:07;100822.22;;;10.83;64.66
74958;BME280;63741;42.624;26.276;2022-12-18T07:30:41;100830.16;;;10.83;65.24
74958;BME280;63741;42.624;26.276;2022-12-18T07:33:08;100838.00;;;10.84;64.09
74958;BME280;63741;42.624;26.276;2022-12-18T07:35:34;100839.13;;;10.80;64.90
74958;BME280;63741;42.624;26.276;2022-12-18T07:38:03;100841.41;;;10.86;64.05
74958;BME280;63741;42.624;26.276;2022-12-18T07:40:30;100847.13;;;10.95;63.50
74958;BME280;63741;42.624;26.276;2022-12-18T07:42:56;100858.28;;;11.00;63.61
74958;BME280;63741;42.624;26.276;2022-12-18T07:45:23;100860.22;;;10.82;64.54
74958;BME280;63741;42.624;26.276;2022-12-18T07:47:50;100874.22;;;10.84;64.66
74958;BME280;63741;42.624;26.276;2022-12-18T07:50:17;100871.13;;;10.92;63.55
74958;BME280;63741;42.624;26.276;2022-12-18T07:52:44;100881.28;;;10.83;64.33
74958;BME280;63741;42.624;26.276;2022-12-18T07:55:11;100883.94;;;10.83;65.12
74958;BME280;63741;42.624;26.276;2022-12-18T07:57:42;100890.75;;;10.57;65.33
74958;BME280;63741;42.624;26.276;2022-12-18T08:00:21;100889.69;;;10.76;64.31
74958;BME280;63741;42.624;26.276;2022-12-18T08:02:47;100905.16;;;10.68;64.24
74958;BME280;63741;42.624;26.276;2022-12-18T08:05:15;100909.69;;;10.66;64.64
74958;BME280;63741;42.624;26.276;2022-12-18T08:07:42;100906.72;;;10.56;65.48
74958;BME280;63741;42.624;26.276;2022-12-18T08:10:09;100908.69;;;10.52;65.91
74958;BME280;63741;42.624;26.276;2022-12-18T08:12:36;100909.88;;;10.47;67.54
74958;BME280;63741;42.624;26.276;2022-12-18T08:15:03;100918.44;;;10.36;67.84
74958;BME280;63741;42.624;26.276;2022-12-18T08:17:30;100918.34;;;10.37;67.30
74958;BME280;63741;42.624;26.276;2022-12-18T08:19:57;100920.56;;;10.29;69.19
74958;BME280;63741;42.624;26.276;2022-12-18T08:22:24;100925.69;;;10.32;69.57
74958;BME280;63741;42.624;26.276;2022-12-18T08:24:51;100924.22;;;10.43;70.63
74958;BME280;63741;42.624;26.276;2022-12-18T08:27:18;100933.09;;;10.42;70.61
74958;BME280;63741;42.624;26.276;2022-12-18T08:30:00;100930.63;;;10.38;68.26
74958;BME280;63741;42.624;26.276;2022-12-18T08:32:28;100932.25;;;10.41;69.03
74958;BME280;63741;42.624;26.276;2022-12-18T08:34:55;100945.63;;;10.38;70.56
74958;BME280;63741;42.624;26.276;2022-12-18T08:37:21;100944.50;;;10.26;69.26
74958;BME280;63741;42.624;26.276;2022-12-18T08:39:48;100941.50;;;10.17;71.87
74958;BME280;63741;42.624;26.276;2022-12-18T08:42:15;100951.09;;;10.35;71.46
74958;BME280;63741;42.624;26.276;2022-12-18T08:45:02;100948.16;;;10.24;69.65
74958;BME280;63741;42.624;26.276;2022-12-18T08:47:29;100946.78;;;10.17;70.58
74958;BME280;63741;42.624;26.276;2022-12-18T08:49:56;100945.34;;;10.11;72.43
74958;BME280;63741;42.624;26.276;2022-12-18T08:52:23;100947.00;;;10.29;72.97
74958;BME280;63741;42.624;26.276;2022-12-18T08:54:49;100949.06;;;10.24;72.83
74958;BME280;63741;42.624;26.276;2022-12-18T08:57:16;100949.91;;;10.41;73.14
74958;BME280;63741;42.624;26.276;2022-12-18T08:59:43;100950.94;;;10.54;72.38
74958;BME280;63741;42.624;26.276;2022-12-18T09:02:11;100951.63;;;10.42;73.18
74958;BME280;63741;42.624;26.276;2022-12-18T09:04:38;100949.91;;;10.41;70.61
74958;BME280;63741;42.624;26.276;2022-12-18T09:07:06;100944.19;;;10.32;73.32
74958;BME280;63741;42.624;26.276;2022-12-18T09:09:33;100950.78;;;10.41;71.81
74958;BME280;63741;42.624;26.276;2022-12-18T09:12:00;100955.97;;;10.27;73.57
74958;BME280;63741;42.624;26.276;2022-12-18T09:14:27;100957.31;;;10.34;73.02
74958;BME280;63741;42.624;26.276;2022-12-18T09:16:54;100948.16;;;10.24;72.30
74958;BME280;63741;42.624;26.276;2022-12-18T09:19:21;100948.22;;;10.22;72.73
74958;BME280;63741;42.624;26.276;2022-12-18T09:21:48;100953.13;;;10.14;73.18
74958;BME280;63741;42.624;26.276;2022-12-18T09:24:15;100947.00;;;10.29;73.60
74958;BME280;63741;42.624;26.276;2022-12-18T09:26:43;100954.31;;;10.40;73.30
74958;BME280;63741;42.624;26.276;2022-12-18T09:29:14;100939.72;;;10.49;73.66
74958;BME280;63741;42.624;26.276;2022-12-18T09:31:42;100947.34;;;10.55;73.89
74958;BME280;63741;42.624;26.276;2022-12-18T09:34:09;100945.88;;;10.65;69.38
74958;BME280;63741;42.624;26.276;2022-12-18T09:36:36;100946.56;;;10.69;69.22
74958;BME280;63741;42.624;26.276;2022-12-18T09:39:03;100947.84;;;10.61;66.44
74958;BME280;63741;42.624;26.276;2022-12-18T09:46:57;100947.66;;;10.49;68.72
74958;BME280;63741;42.624;26.276;2022-12-18T09:49:28;100959.41;;;10.45;69.40
74958;BME280;63741;42.624;26.276;2022-12-18T09:52:14;100957.84;;;10.41;70.70
74958;BME280;63741;42.624;26.276;2022-12-18T09:54:45;100962.03;;;10.45;69.32
74958;BME280;63741;42.624;26.276;2022-12-18T09:57:20;100962.78;;;10.47;69.09
74958;BME280;63741;42.624;26.276;2022-12-18T09:59:58;100958.97;;;10.36;69.58
74958;BME280;63741;42.624;26.276;2022-12-18T10:02:26;100964.00;;;10.08;69.53
74958;BME280;63741;42.624;26.276;2022-12-18T10:05:16;100963.16;;;10.07;69.56
74958;BME280;63741;42.624;26.276;2022-12-18T10:07:59;100971.69;;;9.97;70.01
74958;BME280;63741;42.624;26.276;2022-12-18T10:10:38;100959.81;;;9.88;69.84
74958;BME280;63741;42.624;26.276;2022-12-18T10:13:27;100975.50;;;9.91;66.51
74958;BME280;63741;42.624;26.276;2022-12-18T10:16:17;100972.13;;;9.72;68.08
74958;BME280;63741;42.624;26.276;2022-12-18T10:19:33;100973.44;;;9.63;69.63
74958;BME280;63741;42.624;26.276;2022-12-18T10:24:33;100970.16;;;9.75;67.42
74958;BME280;63741;42.624;26.276;2022-12-18T10:27:24;100950.16;;;9.54;67.18
74958;BME280;63741;42.624;26.276;2022-12-18T10:29:52;100966.16;;;9.51;67.95
74958;BME280;63741;42.624;26.276;2022-12-18T10:32:26;100958.28;;;9.67;66.55
74958;BME280;63741;42.624;26.276;2022-12-18T10:34:55;100960.19;;;9.65;67.44
74958;BME280;63741;42.624;26.276;2022-12-18T10:37:29;100956.88;;;9.77;64.68
74958;BME280;63741;42.624;26.276;2022-12-18T10:40:15;100965.34;;;9.83;64.39
74958;BME280;63741;42.624;26.276;2022-12-18T10:43:10;100953.06;;;9.98;63.62
74958;BME280;63741;42.624;26.276;2022-12-18T10:45:39;100953.44;;;10.08;62.65
74958;BME280;63741;42.624;26.276;2022-12-18T10:48:22;100953.78;;;10.18;62.41
74958;BME280;63741;42.624;26.276;2022-12-18T10:50:50;100954.97;;;10.12;62.12
74958;BME280;63741;42.624;26.276;2022-12-18T10:53:40;100962.66;;;10.17;61.42
74958;BME280;63741;42.624;26.276;2022-12-18T10:56:08;100957.31;;;10.18;59.05
74958;BME280;63741;42.624;26.276;2022-12-18T10:58:37;100961.91;;;10.15;58.10
74958;BME280;63741;42.624;26.276;2022-12-18T11:01:12;100971.91;;;10.25;58.93
74958;BME280;63741;42.624;26.276;2022-12-18T11:04:01;100970.53;;;10.18;59.39
74958;BME280;63741;42.624;26.276;2022-12-18T11:06:29;100974.56;;;10.25;59.27
74958;BME280;63741;42.624;26.276;2022-12-18T11:09:03;100972.72;;;10.10;57.91
74958;BME280;63741;42.624;26.276;2022-12-18T11:11:39;100967.69;;;10.21;57.05
74958;BME280;63741;42.624;26.276;2022-12-18T11:14:20;100968.16;;;10.29;57.80
74958;BME280;63741;42.624;26.276;2022-12-18T11:16:49;100967.88;;;10.18;57.87
74958;BME280;63741;42.624;26.276;2022-12-18T11:19:39;100980.53;;;10.29;58.62
74958;BME280;63741;42.624;26.276;2022-12-18T11:22:27;100984.41;;;10.22;55.15
74958;BME280;63741;42.624;26.276;2022-12-18T11:25:06;100973.44;;;10.29;57.67
74958;BME280;63741;42.624;26.276;2022-12-18T11:28:02;100981.16;;;10.17;55.82
74958;BME280;63741;42.624;26.276;2022-12-18T11:30:31;100980.56;;;10.11;57.33
74958;BME280;63741;42.624;26.276;2022-12-18T11:33:05;100983.31;;;10.10;56.30
74958;BME280;63741;42.624;26.276;2022-12-18T11:38:20;100982.94;;;10.33;56.09
74958;BME280;63741;42.624;26.276;2022-12-18T11:44:16;100997.84;;;10.34;54.26
74958;BME280;63741;42.624;26.276;2022-12-18T11:46:51;100999.03;;;10.29;56.52
74958;BME280;63741;42.624;26.276;2022-12-18T11:49:25;101006.47;;;10.38;57.01
74958;BME280;63741;42.624;26.276;2022-12-18T11:52:00;101016.69;;;10.28;58.34
74958;BME280;63741;42.624;26.276;2022-12-18T11:54:29;101013.47;;;10.06;56.90
74958;BME280;63741;42.624;26.276;2022-12-18T11:59:58;101014.59;;;9.84;66.02
74958;BME280;63741;42.624;26.276;2022-12-18T12:08:50;101014.59;;;9.84;61.32
74958;BME280;63741;42.624;26.276;2022-12-18T12:22:13;101011.59;;;9.57;61.62
74958;BME280;63741;42.624;26.276;2022-12-18T12:30:08;101021.09;;;9.44;64.05
74958;BME280;63741;42.624;26.276;2022-12-18T12:33:01;101031.13;;;9.38;65.89
74958;BME280;63741;42.624;26.276;2022-12-18T12:38:28;101025.38;;;9.29;67.03
74958;BME280;63741;42.624;26.276;2022-12-18T12:41:06;101025.59;;;9.42;67.56
74958;BME280;63741;42.624;26.276;2022-12-18T12:43:57;101036.16;;;9.42;74.05
74958;BME280;63741;42.624;26.276;2022-12-18T12:46:27;101039.81;;;9.40;74.32
74958;BME280;63741;42.624;26.276;2022-12-18T12:49:00;101045.84;;;9.42;76.74
74958;BME280;63741;42.624;26.276;2022-12-18T12:51:32;101050.38;;;9.40;76.58
74958;BME280;63741;42.624;26.276;2022-12-18T12:54:02;101051.78;;;9.47;74.51
74958;BME280;63741;42.624;26.276;2022-12-18T12:56:50;101060.25;;;9.53;74.02
74958;BME280;63741;42.624;26.276;2022-12-18T13:10:32;101080.84;;;9.47;72.32
74958;BME280;63741;42.624;26.276;2022-12-18T13:13:12;101080.41;;;9.37;66.48
74958;BME280;63741;42.624;26.276;2022-12-18T13:16:05;101078.84;;;9.16;64.56
74958;BME280;63741;42.624;26.276;2022-12-18T13:18:33;101083.06;;;9.01;65.16
74958;BME280;63741;42.624;26.276;2022-12-18T13:21:02;101092.22;;;8.94;62.40
74958;BME280;63741;42.624;26.276;2022-12-18T13:23:32;101090.28;;;8.78;62.25
74958;BME280;63741;42.624;26.276;2022-12-18T13:28:56;101098.19;;;8.59;63.26
74958;BME280;63741;42.624;26.276;2022-12-18T13:34:21;101095.06;;;8.51;63.75
74958;BME280;63741;42.624;26.276;2022-12-18T13:37:40;101099.56;;;8.49;63.00
74958;BME280;63741;42.624;26.276;2022-12-18T13:46:00;101127.13;;;8.61;62.41
74958;BME280;63741;42.624;26.276;2022-12-18T13:48:30;101134.63;;;8.70;64.19
74958;BME280;63741;42.624;26.276;2022-12-18T13:51:07;101136.91;;;8.78;64.41
74958;BME280;63741;42.624;26.276;2022-12-18T13:53:47;101146.91;;;8.90;63.96
74958;BME280;63741;42.624;26.276;2022-12-18T13:56:16;101159.81;;;8.96;63.58
74958;BME280;63741;42.624;26.276;2022-12-18T13:58:44;101164.53;;;8.90;71.06
74958;BME280;63741;42.624;26.276;2022-12-18T14:01:23;101161.16;;;8.86;72.53
74958;BME280;63741;42.624;26.276;2022-12-18T14:03:51;101169.31;;;8.61;74.82
74958;BME280;63741;42.624;26.276;2022-12-18T14:06:31;101166.00;;;8.57;76.27
74958;BME280;63741;42.624;26.276;2022-12-18T14:08:58;101164.59;;;8.28;76.23
74958;BME280;63741;42.624;26.276;2022-12-18T14:11:26;101164.78;;;8.24;77.42
74958;BME280;63741;42.624;26.276;2022-12-18T14:13:54;101163.81;;;8.06;78.18
74958;BME280;63741;42.624;26.276;2022-12-18T14:16:21;101163.63;;;8.10;78.24
74958;BME280;63741;42.624;26.276;2022-12-18T14:18:53;101169.75;;;8.11;77.46
74958;BME280;63741;42.624;26.276;2022-12-18T14:21:31;101168.69;;;8.15;77.21
74958;BME280;63741;42.624;26.276;2022-12-18T14:24:17;101170.16;;;8.22;75.22
74958;BME280;63741;42.624;26.276;2022-12-18T14:26:46;101171.97;;;8.20;75.49
74958;BME280;63741;42.624;26.276;2022-12-18T14:29:25;101177.44;;;7.95;76.58
74958;BME280;63741;42.624;26.276;2022-12-18T14:34:48;101179.88;;;8.00;75.47
74958;BME280;63741;42.624;26.276;2022-12-18T14:37:25;101184.38;;;7.76;75.69
74958;BME280;63741;42.624;26.276;2022-12-18T14:40:00;101194.50;;;7.65;74.96
74958;BME280;63741;42.624;26.276;2022-12-18T14:42:36;101198.41;;;7.54;75.24
74958;BME280;63741;42.624;26.276;2022-12-18T14:51:04;101199.78;;;7.43;75.22